createdAt,value
2018-02-19T00:00:15.818Z,87.30
2018-02-19T00:02:44.123Z,87.20
2018-02-19T00:05:11.660Z,87.20
2018-02-19T00:07:39.936Z,86.70
2018-02-19T00:10:08.227Z,86.60
2018-02-19T00:12:35.766Z,86.60
2018-02-19T00:15:03.284Z,86.70
2018-02-19T00:17:31.630Z,86.90
2018-02-19T00:19:59.149Z,86.90
2018-02-19T00:22:26.653Z,87.00
2018-02-19T00:24:54.179Z,86.60
2018-02-19T00:27:22.442Z,86.40
2018-02-19T00:29:49.948Z,86.40
2018-02-19T00:32:17.475Z,87.00
2018-02-19T00:34:45.747Z,87.30
2018-02-19T00:37:14.012Z,87.70
2018-02-19T00:39:41.551Z,87.70
2018-02-19T00:42:09.069Z,87.70
2018-02-19T00:44:36.588Z,88.30
2018-02-19T00:47:04.119Z,88.50
2018-02-19T00:49:32.400Z,88.40
2018-02-19T00:51:59.936Z,88.30
2018-02-19T00:54:27.500Z,88.40
2018-02-19T00:56:55.003Z,88.50
2018-02-19T00:59:22.544Z,88.60
2018-02-19T01:01:50.087Z,88.90
2018-02-19T01:04:17.587Z,88.60
2018-02-19T01:06:45.871Z,88.60
2018-02-19T01:09:14.147Z,88.70
2018-02-19T01:11:42.434Z,89.00
2018-02-19T01:14:09.963Z,89.00
2018-02-19T01:16:37.455Z,89.30
2018-02-19T01:19:04.984Z,89.40
2018-02-19T01:21:33.305Z,89.90
2018-02-19T01:24:00.832Z,89.80
2018-02-19T01:26:28.339Z,89.50
2018-02-19T01:28:55.869Z,89.40
2018-02-19T01:31:23.371Z,89.30
2018-02-19T01:33:50.872Z,89.50
2018-02-19T01:36:19.174Z,90.00
2018-02-19T01:38:46.702Z,90.00
2018-02-19T01:41:14.984Z,90.00
2018-02-19T01:43:42.502Z,90.00
2018-02-19T01:46:10.005Z,89.40
2018-02-19T01:48:37.533Z,89.80
2018-02-19T01:51:05.036Z,89.70
2018-02-19T01:53:32.550Z,89.90
2018-02-19T01:56:00.059Z,89.40
2018-02-19T01:58:27.575Z,88.80
2018-02-19T02:00:55.847Z,89.20
2018-02-19T02:03:23.378Z,89.20
2018-02-19T02:05:50.875Z,89.30
2018-02-19T02:08:19.155Z,89.00
2018-02-19T02:10:47.419Z,89.20
2018-02-19T02:13:15.688Z,89.30
2018-02-19T02:15:43.212Z,89.20
2018-02-19T02:18:10.718Z,89.10
2018-02-19T02:20:38.995Z,89.10
2018-02-19T02:23:07.279Z,89.20
2018-02-19T02:25:35.563Z,89.40
2018-02-19T02:28:03.065Z,89.30
2018-02-19T02:30:30.604Z,88.90
2018-02-19T02:32:58.120Z,88.80
2018-02-19T02:35:27.387Z,89.90
2018-02-19T02:37:54.911Z,89.90
2018-02-19T02:40:22.411Z,89.50
2018-02-19T02:42:49.922Z,89.50
2018-02-19T02:45:17.439Z,89.20
2018-02-19T02:47:44.933Z,89.20
2018-02-19T02:50:12.440Z,89.10
2018-02-19T02:52:39.964Z,90.10
2018-02-19T02:55:07.489Z,90.10
2018-02-19T02:57:35.763Z,90.10
2018-02-19T03:00:04.060Z,90.10
2018-02-19T03:02:31.571Z,89.60
2018-02-19T03:04:59.089Z,89.40
2018-02-19T03:07:26.616Z,89.40
2018-02-19T03:09:54.913Z,90.00
2018-02-19T03:12:22.414Z,89.90
2018-02-19T03:14:49.931Z,89.70
2018-02-19T03:17:17.432Z,89.30
2018-02-19T03:19:44.959Z,89.10
2018-02-19T03:22:12.504Z,88.60
2018-02-19T03:24:40.006Z,88.90
2018-02-19T03:27:07.536Z,89.40
2018-02-19T03:29:35.057Z,89.40
2018-02-19T03:32:03.340Z,89.20
2018-02-19T03:34:31.612Z,89.10
2018-02-19T03:36:59.900Z,88.80
2018-02-19T03:39:27.437Z,88.70
2018-02-19T03:41:55.723Z,89.30
2018-02-19T03:44:24.041Z,89.40
2018-02-19T03:46:51.547Z,89.40
2018-02-19T03:49:19.047Z,89.30
2018-02-19T03:51:46.591Z,89.50
2018-02-19T03:54:14.119Z,89.50
2018-02-19T03:56:41.634Z,89.90
2018-02-19T03:59:09.156Z,90.10
2018-02-19T04:01:37.436Z,88.70
2018-02-19T04:04:05.696Z,88.10
2018-02-19T04:06:34.004Z,88.00
2018-02-19T04:09:01.544Z,87.90
2018-02-19T04:11:29.815Z,87.20
2018-02-19T04:13:58.108Z,87.20
2018-02-19T04:16:25.607Z,87.20
2018-02-19T04:18:53.129Z,87.60
2018-02-19T04:21:22.242Z,87.70
2018-02-19T04:23:49.770Z,87.70
2018-02-19T04:26:18.061Z,87.50
2018-02-19T04:28:46.320Z,87.40
2018-02-19T04:31:14.595Z,87.50
2018-02-19T04:33:42.907Z,87.60
2018-02-19T04:36:10.423Z,87.50
2018-02-19T04:38:37.951Z,87.60
2018-02-19T04:41:06.231Z,87.60
2018-02-19T04:43:34.515Z,87.60
2018-02-19T04:46:02.824Z,87.60
2018-02-19T04:48:33.980Z,87.50
2018-02-19T04:51:02.364Z,87.50
2018-02-19T04:53:29.879Z,87.30
2018-02-19T04:55:57.386Z,86.80
2018-02-19T04:58:24.911Z,86.30
2018-02-19T05:00:53.211Z,86.30
2018-02-19T05:03:20.732Z,86.20
2018-02-19T05:05:48.254Z,86.20
2018-02-19T05:08:15.775Z,86.20
2018-02-19T05:10:44.076Z,86.60
2018-02-19T05:13:11.591Z,86.50
2018-02-19T05:15:39.100Z,86.70
2018-02-19T05:18:06.605Z,86.90
2018-02-19T05:20:34.143Z,86.10
2018-02-19T05:23:01.704Z,86.60
2018-02-19T05:25:29.180Z,86.80
2018-02-19T05:27:57.490Z,87.20
2018-02-19T05:30:24.980Z,87.10
2018-02-19T05:32:52.480Z,87.10
2018-02-19T05:35:19.988Z,87.10
2018-02-19T05:37:47.520Z,86.80
2018-02-19T05:40:15.779Z,87.00
2018-02-19T05:42:43.280Z,87.00
2018-02-19T05:45:10.816Z,87.00
2018-02-19T05:47:39.118Z,86.40
2018-02-19T05:50:07.354Z,86.10
2018-02-19T05:52:34.861Z,86.10
2018-02-19T05:55:02.356Z,86.20
2018-02-19T05:57:29.864Z,86.30
2018-02-19T05:59:57.363Z,86.20
2018-02-19T06:02:24.852Z,86.60
2018-02-19T06:04:53.119Z,87.10
2018-02-19T06:07:20.611Z,87.10
2018-02-19T06:09:48.103Z,86.90
2018-02-19T06:12:15.608Z,86.90
2018-02-19T06:14:43.119Z,86.70
2018-02-19T06:17:10.611Z,86.50
2018-02-19T06:19:38.893Z,86.90
2018-02-19T06:22:07.159Z,86.60
2018-02-19T06:24:34.671Z,86.50
2018-02-19T06:27:02.182Z,86.70
2018-02-19T06:29:30.455Z,86.90
2018-02-19T06:31:57.973Z,86.90
2018-02-19T06:34:25.470Z,87.40
2018-02-19T06:36:53.727Z,86.70
2018-02-19T06:39:21.226Z,86.70
2018-02-19T06:41:48.716Z,86.80
2018-02-19T06:44:16.207Z,86.60
2018-02-19T06:46:43.890Z,86.10
2018-02-19T06:49:12.149Z,86.30
2018-02-19T06:51:39.639Z,86.30
2018-02-19T06:54:07.144Z,86.00
2018-02-19T06:56:34.634Z,85.90
2018-02-19T06:59:02.883Z,85.60
2018-02-19T07:01:30.387Z,85.60
2018-02-19T07:03:57.877Z,86.10
2018-02-19T07:06:25.375Z,85.90
2018-02-19T07:08:53.651Z,84.90
2018-02-19T07:11:21.911Z,84.20
2018-02-19T07:13:49.404Z,84.10
2018-02-19T07:16:16.904Z,84.00
2018-02-19T07:18:44.421Z,86.00
2018-02-19T07:21:11.928Z,82.30
2018-02-19T07:23:39.483Z,79.20
2018-02-19T07:26:07.008Z,79.90
2018-02-19T07:28:34.541Z,76.60
2018-02-19T07:31:02.812Z,67.20
2018-02-19T07:33:31.083Z,64.60
2018-02-19T07:35:59.367Z,62.70
2018-02-19T07:38:27.643Z,60.80
2018-02-19T07:40:55.151Z,60.60
2018-02-19T07:43:22.655Z,59.20
2018-02-19T07:45:50.922Z,61.20
2018-02-19T07:48:19.225Z,66.60
2018-02-19T07:50:46.736Z,66.50
2018-02-19T07:53:14.263Z,70.30
2018-02-19T07:55:41.781Z,73.50
2018-02-19T07:58:10.075Z,77.60
2018-02-19T08:00:37.579Z,77.50
2018-02-19T08:03:05.096Z,77.60
2018-02-19T08:05:32.607Z,78.40
2018-02-19T08:08:00.101Z,79.80
2018-02-19T08:10:27.599Z,78.80
2018-02-19T08:12:55.102Z,79.40
2018-02-19T08:15:22.591Z,80.00
2018-02-19T08:17:50.084Z,80.10
2018-02-19T08:20:17.611Z,79.60
2018-02-19T08:22:45.108Z,79.00
2018-02-19T08:25:12.600Z,79.40
2018-02-19T08:27:40.879Z,80.00
2018-02-19T08:30:09.141Z,79.40
2018-02-19T08:32:36.630Z,79.50
2018-02-19T08:35:04.142Z,80.50
2018-02-19T08:37:31.643Z,80.20
2018-02-19T08:39:59.140Z,80.30
2018-02-19T08:42:26.659Z,80.50
2018-02-19T08:44:54.155Z,79.80
2018-02-19T08:47:21.669Z,79.90
2018-02-19T08:49:49.172Z,79.70
2018-02-19T08:52:16.679Z,78.60
2018-02-19T08:54:44.934Z,77.10
2018-02-19T08:57:13.227Z,75.10
2018-02-19T08:59:41.483Z,75.80
2018-02-19T09:02:08.980Z,75.80
2018-02-19T09:04:36.511Z,76.40
2018-02-19T09:07:04.789Z,74.20
2018-02-19T09:09:33.359Z,74.10
2018-02-19T09:12:01.644Z,73.40
2018-02-19T09:14:29.911Z,72.10
2018-02-19T09:16:57.405Z,72.00
2018-02-19T09:19:24.915Z,69.50
2018-02-19T09:21:52.439Z,70.20
2018-02-19T09:24:19.951Z,69.90
2018-02-19T09:26:48.215Z,71.30
2018-02-19T09:29:15.707Z,71.30
2018-02-19T09:31:43.259Z,71.60
2018-02-19T09:34:10.763Z,71.20
2018-02-19T09:36:38.255Z,69.90
2018-02-19T09:39:06.553Z,70.50
2018-02-19T09:41:34.074Z,69.70
2018-02-19T09:44:01.569Z,69.80
2018-02-19T09:46:29.083Z,71.10
2018-02-19T09:48:56.616Z,68.40
2018-02-19T09:51:24.078Z,67.50
2018-02-19T09:53:51.604Z,69.10
2018-02-19T09:56:19.095Z,68.20
2018-02-19T09:58:46.587Z,66.70
2018-02-19T10:01:14.890Z,67.50
2018-02-19T10:03:42.377Z,67.30
2018-02-19T10:06:09.868Z,67.20
2018-02-19T10:08:37.361Z,65.90
2018-02-19T10:11:04.858Z,67.10
2018-02-19T10:13:32.383Z,68.40
2018-02-19T10:15:59.883Z,69.80
2018-02-19T10:18:27.396Z,68.50
2018-02-19T10:20:54.912Z,65.70
2018-02-19T10:23:22.412Z,67.50
2018-02-19T10:25:49.920Z,66.60
2018-02-19T10:28:17.428Z,67.30
2018-02-19T10:30:44.938Z,65.60
2018-02-19T10:33:12.452Z,68.20
2018-02-19T10:35:39.972Z,68.00
2018-02-19T10:38:07.471Z,66.50
2018-02-19T10:40:34.970Z,65.00
2018-02-19T10:43:02.524Z,67.60
2018-02-19T10:45:29.991Z,66.70
2018-02-19T10:47:57.495Z,66.60
2018-02-19T10:50:25.050Z,67.90
2018-02-19T10:52:52.576Z,69.30
2018-02-19T10:55:20.086Z,67.50
2018-02-19T10:57:47.595Z,65.60
2018-02-19T11:00:30.754Z,66.90
2018-02-19T11:02:58.266Z,66.90
2018-02-19T11:05:25.776Z,64.70
2018-02-19T11:07:54.082Z,64.20
2018-02-19T11:10:21.604Z,66.40
2018-02-19T11:12:49.106Z,66.30
2018-02-19T11:15:16.595Z,70.00
2018-02-19T11:17:44.880Z,64.50
2018-02-19T11:20:12.377Z,64.50
2018-02-19T11:22:39.878Z,66.00
2018-02-19T11:25:08.159Z,64.20
2018-02-19T11:27:36.413Z,65.70
2018-02-19T11:30:03.904Z,65.60
2018-02-19T11:32:31.435Z,65.80
2018-02-19T11:34:58.915Z,66.20
2018-02-19T11:37:27.168Z,66.00
2018-02-19T11:39:54.668Z,66.00
2018-02-19T11:42:22.183Z,64.20
2018-02-19T11:44:49.696Z,65.10
2018-02-19T11:47:17.189Z,65.40
2018-02-19T11:49:44.680Z,63.40
2018-02-19T11:52:12.950Z,65.20
2018-02-19T11:54:41.246Z,61.90
2018-02-19T11:57:09.479Z,60.30
2018-02-19T11:59:37.019Z,60.30
2018-02-19T12:02:04.505Z,60.90
2018-02-19T12:04:32.763Z,61.90
2018-02-19T12:07:00.272Z,61.80
2018-02-19T12:09:27.792Z,62.10
2018-02-19T12:11:56.054Z,62.50
2018-02-19T12:14:23.569Z,62.40
2018-02-19T12:16:51.065Z,60.50
2018-02-19T12:19:18.551Z,61.70
2018-02-19T12:21:46.823Z,60.30
2018-02-19T12:24:15.090Z,59.90
2018-02-19T12:26:42.598Z,59.90
2018-02-19T12:29:10.100Z,62.00
2018-02-19T12:31:37.608Z,62.30
2018-02-19T12:34:05.098Z,59.30
2018-02-19T12:36:32.580Z,58.20
2018-02-19T12:39:00.108Z,58.30
2018-02-19T12:41:27.618Z,58.70
2018-02-19T12:43:55.115Z,59.10
2018-02-19T12:46:22.735Z,60.60
2018-02-19T12:48:50.264Z,59.30
2018-02-19T12:51:17.775Z,58.80
2018-02-19T12:53:45.291Z,59.10
2018-02-19T12:56:13.548Z,58.50
2018-02-19T12:58:41.061Z,58.50
2018-02-19T13:01:08.591Z,59.40
2018-02-19T13:03:36.094Z,58.70
2018-02-19T13:06:03.600Z,58.30
2018-02-19T13:08:31.875Z,58.20
2018-02-19T13:11:00.133Z,57.80
2018-02-19T13:13:27.639Z,57.70
2018-02-19T13:15:55.224Z,59.00
2018-02-19T13:18:22.773Z,61.00
2018-02-19T13:20:50.258Z,59.00
2018-02-19T13:23:17.778Z,59.30
2018-02-19T13:25:45.281Z,58.40
2018-02-19T13:28:12.784Z,58.70
2018-02-19T13:30:41.087Z,59.40
2018-02-19T13:33:08.619Z,59.40
2018-02-19T13:35:36.156Z,59.70
2018-02-19T13:38:03.672Z,59.40
2018-02-19T13:40:31.179Z,58.50
2018-02-19T13:42:59.452Z,58.30
2018-02-19T13:45:27.735Z,58.10
2018-02-19T13:47:56.003Z,57.40
2018-02-19T13:50:23.512Z,57.30
2018-02-19T13:52:51.052Z,60.00
2018-02-19T13:55:18.554Z,58.20
2018-02-19T13:57:46.060Z,58.00
2018-02-19T14:00:13.585Z,58.30
2018-02-19T14:02:41.850Z,58.20
2018-02-19T14:05:09.355Z,58.10
2018-02-19T14:07:36.880Z,58.90
2018-02-19T14:10:05.155Z,58.50
2018-02-19T14:12:32.682Z,58.50
2018-02-19T14:15:00.240Z,60.10
2018-02-19T14:17:28.751Z,58.90
2018-02-19T14:19:57.139Z,59.20
2018-02-19T14:22:25.407Z,59.30
2018-02-19T14:24:52.958Z,59.20
2018-02-19T14:27:20.591Z,57.70
2018-02-19T14:29:48.096Z,57.70
2018-02-19T14:32:16.563Z,59.60
2018-02-19T14:34:44.084Z,59.50
2018-02-19T14:37:11.584Z,58.30
2018-02-19T14:39:39.085Z,58.90
2018-02-19T14:42:06.591Z,58.50
2018-02-19T14:44:34.131Z,57.60
2018-02-19T14:47:01.656Z,57.40
2018-02-19T14:49:29.169Z,58.20
2018-02-19T14:51:56.667Z,57.30
2018-02-19T14:54:24.158Z,57.00
2018-02-19T14:56:51.663Z,58.10
2018-02-19T14:59:19.914Z,59.00
2018-02-19T15:01:47.410Z,59.00
2018-02-19T15:04:14.940Z,59.40
2018-02-19T15:06:42.444Z,58.20
2018-02-19T15:09:09.930Z,57.70
2018-02-19T15:11:37.462Z,58.50
2018-02-19T15:14:04.976Z,59.20
2018-02-19T15:19:07.242Z,58.70
2018-02-19T15:21:34.753Z,60.00
2018-02-19T15:24:02.290Z,58.90
2018-02-19T15:26:30.567Z,58.90
2018-02-19T15:28:58.065Z,58.90
2018-02-19T15:31:25.628Z,59.10
2018-02-19T15:33:53.155Z,59.40
2018-02-19T15:36:20.739Z,59.10
2018-02-19T15:38:48.241Z,59.10
2018-02-19T15:41:15.739Z,59.10
2018-02-19T15:43:43.248Z,59.60
2018-02-19T15:46:10.763Z,60.40
2018-02-19T15:48:38.322Z,60.20
2018-02-19T15:51:05.832Z,62.00
2018-02-19T15:53:33.370Z,61.00
2018-02-19T15:56:00.883Z,61.80
2018-02-19T15:58:28.480Z,62.30
2018-02-19T16:00:55.980Z,62.90
2018-02-19T16:03:24.246Z,65.20
2018-02-19T16:05:52.527Z,64.30
2018-02-19T16:08:20.790Z,64.00
2018-02-19T16:10:48.299Z,64.00
2018-02-19T16:13:15.844Z,64.10
2018-02-19T16:15:43.355Z,64.90
2018-02-19T16:18:10.862Z,65.00
2018-02-19T16:20:38.392Z,65.40
2018-02-19T16:23:06.678Z,65.80
2018-02-19T16:25:34.976Z,67.10
2018-02-19T16:28:02.560Z,66.90
2018-02-19T16:30:30.111Z,66.70
2018-02-19T16:32:57.642Z,67.00
2018-02-19T16:35:25.159Z,68.40
2018-02-19T16:37:52.646Z,68.60
2018-02-19T16:40:20.907Z,70.20
2018-02-19T16:42:49.197Z,70.00
2018-02-19T16:45:17.454Z,71.10
2018-02-19T16:47:44.979Z,71.20
2018-02-19T16:50:12.532Z,71.70
2018-02-19T16:52:40.033Z,72.40
2018-02-19T16:55:08.318Z,72.40
2018-02-19T16:57:36.594Z,72.40
2018-02-19T17:00:04.084Z,72.30
2018-02-19T17:02:31.612Z,72.60
2018-02-19T17:04:59.879Z,74.10
2018-02-19T17:07:28.147Z,74.70
2018-02-19T17:09:55.678Z,74.60
2018-02-19T17:12:23.182Z,75.10
2018-02-19T17:14:50.694Z,75.40
2018-02-19T17:17:18.216Z,75.40
2018-02-19T17:19:45.715Z,75.60
2018-02-19T17:22:13.225Z,75.60
2018-02-19T17:24:40.743Z,75.80
2018-02-19T17:27:08.264Z,76.30
2018-02-19T17:29:35.754Z,76.50
2018-02-19T17:32:03.269Z,76.90
2018-02-19T17:34:30.772Z,76.80
2018-02-19T17:36:58.280Z,77.10
2018-02-19T17:39:25.799Z,77.30
2018-02-19T17:41:54.087Z,78.00
2018-02-19T17:44:22.347Z,78.30
2018-02-19T17:46:49.859Z,78.30
2018-02-19T17:49:17.359Z,77.80
2018-02-19T17:51:44.856Z,77.90
2018-02-19T17:54:12.379Z,77.80
2018-02-19T17:56:40.677Z,77.40
2018-02-19T17:59:08.968Z,77.30
2018-02-19T18:01:36.467Z,77.30
2018-02-19T18:04:03.971Z,77.30
2018-02-19T18:06:32.235Z,76.30
2018-02-19T18:09:00.511Z,76.30
2018-02-19T18:11:28.811Z,76.40
2018-02-19T18:13:56.311Z,76.30
2018-02-19T18:16:23.807Z,76.80
2018-02-19T18:18:52.118Z,76.30
2018-02-19T18:21:19.630Z,76.30
2018-02-19T18:23:47.166Z,76.40
2018-02-19T18:26:14.701Z,76.80
2018-02-19T18:28:42.190Z,76.00
2018-02-19T18:31:09.691Z,76.30
2018-02-19T18:33:37.207Z,76.70
2018-02-19T18:36:04.720Z,76.50
2018-02-19T18:38:32.212Z,76.30
2018-02-19T18:40:59.723Z,76.40
2018-02-19T18:43:28.030Z,77.00
2018-02-19T18:45:55.529Z,77.00
2018-02-19T18:48:23.042Z,78.10
2018-02-19T18:50:50.543Z,77.60
2018-02-19T18:53:18.050Z,77.70
2018-02-19T18:55:45.545Z,77.80
2018-02-19T18:58:13.043Z,78.50
2018-02-19T19:00:40.571Z,78.80
2018-02-19T19:03:08.083Z,79.20
2018-02-19T19:05:35.594Z,79.50
2018-02-19T19:08:15.032Z,79.50
2018-02-19T19:10:51.899Z,79.80
2018-02-19T19:13:19.458Z,79.40
2018-02-19T19:15:46.980Z,79.20
2018-02-19T19:18:14.494Z,79.10
2018-02-19T19:20:42.791Z,79.50
2018-02-19T19:23:10.311Z,79.50
2018-02-19T19:25:37.831Z,79.90
2018-02-19T19:28:05.331Z,80.10
2018-02-19T19:30:32.844Z,79.80
2018-02-19T19:33:00.359Z,79.60
2018-02-19T19:35:27.869Z,80.00
2018-02-19T19:37:55.396Z,80.80
2018-02-19T19:40:22.933Z,80.20
2018-02-19T19:42:50.436Z,79.90
2018-02-19T19:45:17.961Z,79.90
2018-02-19T19:47:46.243Z,80.00
2018-02-19T19:50:13.734Z,80.10
2018-02-19T19:52:42.009Z,79.80
2018-02-19T19:55:09.532Z,79.70
2018-02-19T19:57:37.032Z,79.70
2018-02-19T20:00:04.539Z,80.00
2018-02-19T20:02:32.068Z,80.30
2018-02-19T20:04:59.580Z,80.50
2018-02-19T20:07:27.083Z,80.90
2018-02-19T20:09:54.588Z,81.40
2018-02-19T20:12:22.117Z,82.00
2018-02-19T20:14:49.645Z,82.50
2018-02-19T20:17:17.174Z,82.30
2018-02-19T20:19:44.691Z,82.30
2018-02-19T20:22:12.219Z,82.30
2018-02-19T20:24:39.767Z,82.40
2018-02-19T20:27:07.291Z,83.10
2018-02-19T20:29:34.796Z,82.70
2018-02-19T20:32:03.104Z,83.10
2018-02-19T20:34:31.387Z,83.10
2018-02-19T20:37:00.062Z,83.00
2018-02-19T20:39:27.585Z,83.30
2018-02-19T20:41:55.088Z,83.30
2018-02-19T20:44:22.652Z,83.70
2018-02-19T20:46:50.166Z,83.70
2018-02-19T20:49:18.451Z,83.40
2018-02-19T20:51:46.715Z,83.10
2018-02-19T20:54:14.266Z,83.10
2018-02-19T20:56:41.798Z,83.10
2018-02-19T20:59:10.079Z,83.10
2018-02-19T21:01:37.622Z,83.10
2018-02-19T21:04:05.219Z,83.00
2018-02-19T21:06:32.765Z,83.90
2018-02-19T21:09:00.288Z,84.30
2018-02-19T21:11:28.569Z,84.40
2018-02-19T21:13:56.852Z,84.50
2018-02-19T21:16:24.512Z,84.50
2018-02-19T21:18:52.015Z,84.70
2018-02-19T21:21:20.316Z,85.00
2018-02-19T21:23:47.851Z,85.00
2018-02-19T21:26:16.376Z,84.90
2018-02-19T21:28:44.000Z,84.90
2018-02-19T21:31:11.607Z,85.00
2018-02-19T21:33:39.885Z,84.80
2018-02-19T21:36:08.168Z,84.60
2018-02-19T21:38:35.691Z,84.50
2018-02-19T21:41:03.194Z,84.90
2018-02-19T21:43:30.691Z,85.10
2018-02-19T21:45:58.212Z,85.20
2018-02-19T21:48:25.721Z,85.40
2018-02-19T21:50:53.263Z,85.40
2018-02-19T21:53:20.769Z,85.20
2018-02-19T21:55:49.056Z,85.30
2018-02-19T21:58:16.579Z,85.30
2018-02-19T22:00:44.092Z,85.40
2018-02-19T22:03:11.612Z,85.80
2018-02-19T22:05:39.916Z,86.80
2018-02-19T22:08:07.413Z,86.70
2018-02-19T22:10:34.925Z,86.90
2018-02-19T22:13:02.446Z,86.80
2018-02-19T22:15:29.963Z,86.70
2018-02-19T22:17:57.485Z,86.60
2018-02-19T22:20:25.787Z,86.10
2018-02-19T22:22:53.292Z,86.10
2018-02-19T22:25:20.837Z,86.00
2018-02-19T22:27:48.352Z,85.90
2018-02-19T22:30:15.855Z,85.90
2018-02-19T22:32:43.383Z,86.10
2018-02-19T22:35:10.897Z,86.60
2018-02-19T22:37:38.400Z,86.80
2018-02-19T22:40:05.924Z,86.70
2018-02-19T22:42:34.208Z,86.70
2018-02-19T22:45:02.497Z,86.50
2018-02-19T22:47:30.035Z,86.50
2018-02-19T22:49:58.307Z,86.70
2018-02-19T22:52:26.591Z,86.70
2018-02-19T22:54:54.872Z,86.80
2018-02-19T22:57:22.386Z,86.80
2018-02-19T22:59:49.898Z,86.70
2018-02-19T23:02:17.407Z,86.90
2018-02-19T23:04:44.919Z,87.00
2018-02-19T23:07:12.440Z,87.10
2018-02-19T23:09:39.935Z,87.50
2018-02-19T23:12:07.445Z,87.60
2018-02-19T23:14:34.983Z,87.80
2018-02-19T23:17:02.485Z,87.80
2018-02-19T23:19:30.752Z,87.20
2018-02-19T23:21:58.275Z,87.10
2018-02-19T23:24:25.783Z,87.50
2018-02-19T23:26:54.057Z,87.60
2018-02-19T23:29:22.360Z,88.20
2018-02-19T23:31:49.880Z,88.10
2018-02-19T23:34:18.187Z,88.30
2018-02-19T23:36:45.718Z,88.30
2018-02-19T23:39:14.029Z,88.50
2018-02-19T23:41:41.527Z,88.50
2018-02-19T23:44:09.051Z,88.60
2018-02-19T23:46:36.569Z,88.60
2018-02-19T23:49:04.076Z,88.50
2018-02-19T23:51:31.594Z,88.60
2018-02-19T23:53:59.879Z,88.90
2018-02-19T23:56:27.401Z,88.90
2018-02-19T23:58:54.923Z,88.80
